createdAt,value
2022-11-24T00:03:17.026Z,82.36
2022-11-24T00:08:20.846Z,82.47
2022-11-24T00:13:24.464Z,82.71
2022-11-24T00:18:28.184Z,82.48
2022-11-24T00:23:31.802Z,82.59
2022-11-24T00:28:36.554Z,82.60
2022-11-24T00:33:39.855Z,82.49
2022-11-24T00:38:43.886Z,82.60
2022-11-24T00:43:47.296Z,82.46
2022-11-24T00:48:50.923Z,82.31
2022-11-24T00:53:55.744Z,82.49
2022-11-24T00:58:59.286Z,82.22
2022-11-24T01:04:02.894Z,82.54
2022-11-24T01:09:06.410Z,82.75
2022-11-24T01:14:09.925Z,82.46
2022-11-24T01:19:13.341Z,82.45
2022-11-24T01:24:17.060Z,82.51
2022-11-24T01:29:20.473Z,82.85
2022-11-24T01:34:24.095Z,82.56
2022-11-24T01:39:27.707Z,82.43
2022-11-24T01:44:32.105Z,82.71
2022-11-24T01:49:41.199Z,82.62
2022-11-24T01:54:55.560Z,82.74
2022-11-24T02:00:04.936Z,82.74
2022-11-24T02:05:17.340Z,82.80
2022-11-24T02:10:22.080Z,82.52
2022-11-24T02:15:26.007Z,82.54
2022-11-24T02:20:29.429Z,82.51
2022-11-24T02:25:35.904Z,82.58
2022-11-24T02:30:39.774Z,82.58
2022-11-24T02:35:43.762Z,82.44
2022-11-24T02:40:49.533Z,82.58
2022-11-24T02:45:53.036Z,82.61
2022-11-24T02:50:56.659Z,82.43
2022-11-24T02:56:00.172Z,82.42
2022-11-24T03:01:05.029Z,82.60
2022-11-24T03:06:08.650Z,82.43
2022-11-24T03:11:12.570Z,82.29
2022-11-24T03:16:16.181Z,82.59
2022-11-24T03:21:20.643Z,82.74
2022-11-24T03:26:26.048Z,82.69
2022-11-24T03:31:29.528Z,82.42
2022-11-24T03:36:33.116Z,82.49
2022-11-24T03:41:36.831Z,82.50
2022-11-24T03:46:40.385Z,82.41
2022-11-24T03:51:44.171Z,82.55
2022-11-24T03:56:47.995Z,82.43
2022-11-24T04:01:51.789Z,82.41
2022-11-24T04:06:55.329Z,82.70
2022-11-24T04:12:17.689Z,82.37
2022-11-24T04:17:21.204Z,82.42
2022-11-24T04:22:24.822Z,82.54
2022-11-24T04:27:28.951Z,82.71
2022-11-24T04:32:32.774Z,82.66
2022-11-24T04:37:36.290Z,82.55
2022-11-24T04:42:40.012Z,82.53
2022-11-24T04:47:43.424Z,82.38
2022-11-24T04:52:47.148Z,82.49
2022-11-24T04:57:50.865Z,82.83
2022-11-24T05:02:54.481Z,82.63
2022-11-24T05:08:00.956Z,82.57
2022-11-24T05:13:13.610Z,82.73
2022-11-24T05:18:17.514Z,82.90
2022-11-24T05:23:21.029Z,82.61
2022-11-24T05:28:26.579Z,82.90
2022-11-24T05:33:33.661Z,82.45
2022-11-24T05:38:37.208Z,82.61
2022-11-24T05:43:40.621Z,82.46
2022-11-24T05:48:44.136Z,82.64
2022-11-24T05:53:47.549Z,82.85
2022-11-24T05:58:51.064Z,82.81
2022-11-24T06:03:54.579Z,82.62
2022-11-24T06:08:57.993Z,82.91
2022-11-24T06:14:01.611Z,82.71
2022-11-24T06:19:07.992Z,82.58
2022-11-24T06:24:11.718Z,82.72
2022-11-24T06:29:15.336Z,82.29
2022-11-24T06:34:19.258Z,82.32
2022-11-24T06:39:22.876Z,82.61
2022-11-24T06:44:26.697Z,82.73
2022-11-24T06:49:30.213Z,82.42
2022-11-24T06:54:34.671Z,82.65
2022-11-24T06:59:38.167Z,82.50
2022-11-24T07:04:41.683Z,82.54
2022-11-24T07:09:45.299Z,82.50
2022-11-24T07:14:48.922Z,82.51
2022-11-24T07:19:53.048Z,82.60
2022-11-24T07:24:56.460Z,82.42
2022-11-24T07:29:59.974Z,82.08
2022-11-24T07:35:04.108Z,82.30
2022-11-24T07:40:08.441Z,82.05
2022-11-24T07:45:11.855Z,82.20
2022-11-24T07:50:15.473Z,82.06
2022-11-24T07:55:19.089Z,82.12
2022-11-24T08:00:22.712Z,81.87
2022-11-24T08:05:26.329Z,81.80
2022-11-24T08:10:30.284Z,81.97
2022-11-24T08:15:33.666Z,81.85
2022-11-24T08:20:37.179Z,81.89
2022-11-24T08:25:40.695Z,81.59
2022-11-24T08:30:44.312Z,81.66
2022-11-24T08:35:47.829Z,81.62
2022-11-24T08:40:51.446Z,81.57
2022-11-24T08:45:54.997Z,81.59
2022-11-24T08:50:59.604Z,81.41
2022-11-24T08:56:04.030Z,81.42
2022-11-24T09:01:10.975Z,81.43
2022-11-24T09:06:15.064Z,81.38
2022-11-24T09:11:19.716Z,81.67
2022-11-24T09:16:26.382Z,81.35
2022-11-24T09:21:31.146Z,81.47
2022-11-24T09:26:37.320Z,81.19
2022-11-24T09:31:40.936Z,81.31
2022-11-24T09:36:44.352Z,80.92
2022-11-24T09:42:06.813Z,81.02
2022-11-24T09:47:16.571Z,80.95
2022-11-24T09:52:32.888Z,80.92
2022-11-24T09:57:41.527Z,80.77
2022-11-24T10:02:48.352Z,80.84
2022-11-24T10:08:06.885Z,80.88
2022-11-24T10:13:53.716Z,80.61
2022-11-24T10:19:37.721Z,80.41
2022-11-24T10:25:20.105Z,79.98
2022-11-24T10:30:26.591Z,79.88
2022-11-24T10:35:57.347Z,80.30
2022-11-24T10:41:06.501Z,80.35
2022-11-24T10:46:20.069Z,80.43
2022-11-24T10:51:58.404Z,80.01
2022-11-24T10:57:02.506Z,80.07
2022-11-24T11:02:36.206Z,80.09
2022-11-24T11:07:39.967Z,79.87
2022-11-24T11:12:44.979Z,79.73
2022-11-24T11:17:52.663Z,79.53
2022-11-24T11:22:58.452Z,79.55
2022-11-24T11:28:40.721Z,79.84
2022-11-24T11:34:08.065Z,80.01
2022-11-24T11:39:36.280Z,79.75
2022-11-24T11:44:49.211Z,79.94
2022-11-24T11:49:53.238Z,79.73
2022-11-24T11:55:27.476Z,79.70
2022-11-24T12:00:35.701Z,79.61
2022-11-24T12:06:01.027Z,79.52
2022-11-24T12:11:32.194Z,79.84
2022-11-24T12:16:49.838Z,79.65
2022-11-24T12:22:14.456Z,79.56
2022-11-24T12:27:55.442Z,79.56
2022-11-24T12:33:17.492Z,79.57
2022-11-24T12:38:55.934Z,79.40
2022-11-24T12:44:01.283Z,79.57
2022-11-24T12:49:21.798Z,79.55
2022-11-24T12:54:32.890Z,79.47
2022-11-24T13:00:01.965Z,79.60
2022-11-24T13:05:39.621Z,79.78
2022-11-24T13:10:58.825Z,79.47
2022-11-24T13:21:51.971Z,79.68
2022-11-24T13:27:20.008Z,79.69
2022-11-24T13:32:23.420Z,79.78
2022-11-24T13:37:34.221Z,79.56
2022-11-24T13:43:03.530Z,79.48
2022-11-24T13:48:19.221Z,79.57
2022-11-24T13:59:35.586Z,79.50
2022-11-24T14:04:44.435Z,79.51
2022-11-24T14:09:52.148Z,79.34
2022-11-24T14:15:21.052Z,79.24
2022-11-24T14:20:27.128Z,79.28
2022-11-24T14:25:32.261Z,79.17
2022-11-24T14:30:35.592Z,79.36
2022-11-24T14:35:44.755Z,79.44
2022-11-24T14:40:54.075Z,79.73
2022-11-24T14:46:09.646Z,79.36
2022-11-24T14:51:22.217Z,79.74
2022-11-24T14:56:27.573Z,79.74
2022-11-24T15:01:34.944Z,79.91
2022-11-24T15:06:40.802Z,80.16
2022-11-24T15:11:44.369Z,79.85
2022-11-24T15:16:48.037Z,79.88
2022-11-24T15:21:51.807Z,79.93
2022-11-24T15:27:01.781Z,79.88
2022-11-24T15:32:15.547Z,79.94
2022-11-24T15:37:18.840Z,80.10
2022-11-24T15:42:22.356Z,80.05
2022-11-24T15:47:25.769Z,80.19
2022-11-24T15:52:29.286Z,79.74
2022-11-24T15:57:35.770Z,79.92
2022-11-24T16:02:45.126Z,79.95
2022-11-24T16:07:48.822Z,79.85
2022-11-24T16:12:52.564Z,80.29
2022-11-24T16:17:55.979Z,80.07
2022-11-24T16:22:59.441Z,80.04
2022-11-24T16:28:03.015Z,80.15
2022-11-24T16:33:07.136Z,80.35
2022-11-24T16:38:24.579Z,80.40
2022-11-24T16:43:29.222Z,80.64
2022-11-24T16:48:38.780Z,80.78
2022-11-24T16:53:43.026Z,80.68
2022-11-24T16:58:46.527Z,80.87
2022-11-24T17:03:50.043Z,81.14
2022-11-24T17:08:55.915Z,81.15
2022-11-24T17:13:59.326Z,81.11
2022-11-24T17:19:03.249Z,81.33
2022-11-24T17:24:07.477Z,81.07
2022-11-24T17:29:11.304Z,80.90
2022-11-24T17:34:14.722Z,81.11
2022-11-24T17:39:23.240Z,81.32
2022-11-24T17:44:28.508Z,81.13
2022-11-24T17:49:31.818Z,81.08
2022-11-24T17:54:50.495Z,81.04
2022-11-24T17:59:53.901Z,81.12
2022-11-24T18:04:57.316Z,81.17
2022-11-24T18:10:01.048Z,81.00
2022-11-24T18:15:04.937Z,81.11
2022-11-24T18:20:10.944Z,81.26
2022-11-24T18:25:14.449Z,81.05
2022-11-24T18:30:18.493Z,80.88
2022-11-24T18:35:21.889Z,80.87
2022-11-24T18:40:25.718Z,80.71
2022-11-24T18:45:29.398Z,81.06
2022-11-24T18:50:33.563Z,81.12
2022-11-24T18:55:37.080Z,81.15
2022-11-24T19:00:40.491Z,81.08
2022-11-24T19:05:44.110Z,81.32
2022-11-24T19:10:49.674Z,81.44
2022-11-24T19:15:53.190Z,81.23
2022-11-24T19:20:57.830Z,81.41
2022-11-24T19:26:01.654Z,81.41
2022-11-24T19:31:07.933Z,81.52
2022-11-24T19:36:16.677Z,81.51
2022-11-24T19:41:21.927Z,81.10
2022-11-24T19:46:27.855Z,81.19
2022-11-24T19:51:36.530Z,81.43
2022-11-24T19:56:41.592Z,81.51
2022-11-24T20:01:45.256Z,81.53
2022-11-24T20:06:49.136Z,81.38
2022-11-24T20:11:52.647Z,81.49
2022-11-24T20:16:56.233Z,81.27
2022-11-24T20:22:00.499Z,81.42
2022-11-24T20:27:04.120Z,81.43
2022-11-24T20:32:09.045Z,81.44
2022-11-24T20:37:13.914Z,81.44
2022-11-24T20:42:17.429Z,81.46
2022-11-24T20:47:20.943Z,81.00
2022-11-24T20:52:24.460Z,80.79
2022-11-24T20:57:27.871Z,81.05
2022-11-24T21:02:31.476Z,81.36
2022-11-24T21:07:35.372Z,81.48
2022-11-24T21:12:38.930Z,81.44
2022-11-24T21:17:42.344Z,81.37
2022-11-24T21:22:45.860Z,81.50
2022-11-24T21:27:49.373Z,81.64
2022-11-24T21:32:52.786Z,81.71
2022-11-24T21:37:56.615Z,81.84
2022-11-24T21:43:00.123Z,81.89
2022-11-24T21:48:03.644Z,81.78
2022-11-24T21:53:09.719Z,81.45
2022-11-24T21:58:13.232Z,81.54
2022-11-24T22:03:17.690Z,81.85
2022-11-24T22:08:22.104Z,81.79
2022-11-24T22:13:25.623Z,81.69
2022-11-24T22:18:38.284Z,81.68
2022-11-24T22:23:42.541Z,81.98
2022-11-24T22:28:46.614Z,81.59
2022-11-24T22:33:50.742Z,81.87
2022-11-24T22:38:56.116Z,81.82
2022-11-24T22:43:59.924Z,81.87
2022-11-24T22:49:03.458Z,81.77
2022-11-24T22:54:06.954Z,81.95
2022-11-24T22:59:10.474Z,81.86
2022-11-24T23:04:14.570Z,82.04
2022-11-24T23:09:18.115Z,82.00
2022-11-24T23:14:21.634Z,81.89
2022-11-24T23:19:25.044Z,82.14
2022-11-24T23:24:28.561Z,81.78
2022-11-24T23:29:31.974Z,81.97
2022-11-24T23:34:35.677Z,82.13
2022-11-24T23:39:39.414Z,81.93
2022-11-24T23:44:42.928Z,82.11
2022-11-24T23:49:46.446Z,81.77
2022-11-24T23:54:49.959Z,82.04
2022-11-24T23:59:54.090Z,82.49
